Artesia, Mississippi
Current Conditions -  °F | °C
As of 1:45 PM on Sunday 25 Jan 2015 (Local Time) from KGTR Reporting Station
Scattered Clouds Scattered Clouds  
Wind Chill: 17°   Ceiling: Unl
Heat Index: 17°   Visibility: 10mi
Dew Point:   Wind: 10mph
Humidity: 45%   Direction: 240°WSW
Pressure: 29.71"   Gusts: 18mph
Location:  33.42°N, 88.64°W
Report Text: KGTR 251945Z 24009G16KT 10SM FEW050 SCT100 17/05 A2971
Loading
Personal Weather Stations






























Interactive Weather Map New forecast layout! Learn more

10-Day Weather Forecast

Advertisements
Track Severe Weather on mobile